createdAt,value
2022-09-15T00:01:42.516Z,99.90
2022-09-15T00:04:11.163Z,99.90
2022-09-15T00:06:41.097Z,99.90
2022-09-15T00:09:09.896Z,99.90
2022-09-15T00:11:39.730Z,99.90
2022-09-15T00:14:09.742Z,99.90
2022-09-15T00:16:38.774Z,99.90
2022-09-15T00:19:08.102Z,99.90
2022-09-15T00:21:39.928Z,99.90
2022-09-15T00:24:10.434Z,99.90
2022-09-15T00:26:39.288Z,99.90
2022-09-15T00:29:07.829Z,99.90
2022-09-15T00:31:36.420Z,99.90
2022-09-15T00:34:06.240Z,99.90
2022-09-15T00:36:34.993Z,99.90
2022-09-15T00:39:03.593Z,99.90
2022-09-15T00:41:33.841Z,99.90
2022-09-15T00:44:04.471Z,99.90
2022-09-15T00:46:36.086Z,99.90
2022-09-15T00:49:09.288Z,99.90
2022-09-15T00:51:43.965Z,99.90
2022-09-15T00:54:23.930Z,99.90
2022-09-15T00:56:56.464Z,99.90
2022-09-15T00:59:27.428Z,99.90
2022-09-15T01:02:02.516Z,99.90
2022-09-15T01:04:32.263Z,99.90
2022-09-15T01:07:05.943Z,99.90
2022-09-15T01:09:38.392Z,99.90
2022-09-15T01:12:08.779Z,99.90
2022-09-15T01:14:37.491Z,99.90
2022-09-15T01:17:16.543Z,99.90
2022-09-15T01:20:06.171Z,99.90
2022-09-15T01:22:41.927Z,99.90
2022-09-15T01:25:20.657Z,99.90
2022-09-15T01:28:46.614Z,99.90
2022-09-15T01:31:24.580Z,99.90
2022-09-15T01:34:00.221Z,99.90
2022-09-15T01:36:38.023Z,99.90
2022-09-15T01:39:14.820Z,99.90
2022-09-15T01:41:48.400Z,99.90
2022-09-15T01:44:22.596Z,99.90
2022-09-15T01:46:57.165Z,99.90
2022-09-15T01:49:31.408Z,99.90
2022-09-15T01:52:00.069Z,99.90
2022-09-15T01:54:33.048Z,99.90
2022-09-15T01:57:03.452Z,99.90
2022-09-15T01:59:32.305Z,99.90
2022-09-15T02:02:06.894Z,99.90
2022-09-15T02:04:39.772Z,99.90
2022-09-15T02:07:14.760Z,99.90
2022-09-15T02:09:51.828Z,99.90
2022-09-15T02:12:33.964Z,99.90
2022-09-15T02:15:08.678Z,99.90
2022-09-15T02:17:43.857Z,99.90
2022-09-15T02:20:19.917Z,99.90
2022-09-15T02:22:50.672Z,99.90
2022-09-15T02:25:22.608Z,99.90
2022-09-15T02:27:54.082Z,99.90
2022-09-15T02:30:23.290Z,99.90
2022-09-15T02:32:57.331Z,99.90
2022-09-15T02:35:28.448Z,99.90
2022-09-15T02:37:57.983Z,99.90
2022-09-15T02:40:29.085Z,99.90
2022-09-15T02:43:01.086Z,99.90
2022-09-15T02:45:31.096Z,99.90
2022-09-15T02:48:01.265Z,99.90
2022-09-15T02:50:30.974Z,99.90
2022-09-15T02:52:59.589Z,99.90
2022-09-15T02:55:29.119Z,99.90
2022-09-15T02:57:57.971Z,99.90
2022-09-15T03:00:28.394Z,99.90
2022-09-15T03:02:57.562Z,99.90
2022-09-15T03:05:29.502Z,99.90
2022-09-15T03:07:58.802Z,99.90
2022-09-15T03:10:27.731Z,99.90
2022-09-15T03:12:56.541Z,99.90
2022-09-15T03:15:27.222Z,99.90
2022-09-15T03:17:55.965Z,99.90
2022-09-15T03:20:27.798Z,99.90
2022-09-15T03:22:57.747Z,99.90
2022-09-15T03:25:27.515Z,99.90
2022-09-15T03:27:56.188Z,99.90
2022-09-15T03:30:24.736Z,99.90
2022-09-15T03:32:53.313Z,99.90
2022-09-15T03:35:21.945Z,99.90
2022-09-15T03:37:50.523Z,99.90
2022-09-15T03:40:20.589Z,99.90
2022-09-15T03:42:49.314Z,99.90
2022-09-15T03:45:17.892Z,99.90
2022-09-15T03:47:46.444Z,99.90
2022-09-15T03:50:14.969Z,99.90
2022-09-15T03:52:43.765Z,99.90
2022-09-15T03:55:12.520Z,99.90
2022-09-15T03:57:42.472Z,99.90
2022-09-15T04:00:12.405Z,99.90
2022-09-15T04:02:40.954Z,99.90
2022-09-15T04:05:10.558Z,99.90
2022-09-15T04:07:39.238Z,99.90
2022-09-15T04:10:09.244Z,99.90
2022-09-15T04:12:38.042Z,99.90
2022-09-15T04:15:08.801Z,99.90
2022-09-15T04:17:37.454Z,99.90
2022-09-15T04:20:06.736Z,99.90
2022-09-15T04:22:35.318Z,99.90
2022-09-15T04:25:03.926Z,99.90
2022-09-15T04:27:34.391Z,99.90
2022-09-15T04:30:03.053Z,99.90
2022-09-15T04:32:33.171Z,99.90
2022-09-15T04:35:01.744Z,99.90
2022-09-15T04:37:30.905Z,99.90
2022-09-15T04:39:59.772Z,99.90
2022-09-15T04:42:28.893Z,99.90
2022-09-15T04:44:57.417Z,99.90
2022-09-15T04:47:26.001Z,99.90
2022-09-15T04:49:56.015Z,99.90
2022-09-15T04:52:24.552Z,99.90
2022-09-15T04:54:53.157Z,99.90
2022-09-15T04:57:21.697Z,99.90
2022-09-15T04:59:50.340Z,99.90
2022-09-15T05:02:19.115Z,99.90
2022-09-15T05:04:51.439Z,99.90
2022-09-15T05:07:21.353Z,99.90
2022-09-15T05:09:49.959Z,99.90
2022-09-15T05:12:18.472Z,99.90
2022-09-15T05:14:46.984Z,99.90
2022-09-15T05:17:15.603Z,99.90
2022-09-15T05:19:44.153Z,99.90
2022-09-15T05:22:12.741Z,99.90
2022-09-15T05:24:42.650Z,99.90
2022-09-15T05:27:11.163Z,99.90
2022-09-15T05:29:39.792Z,99.90
2022-09-15T05:32:08.296Z,99.90
2022-09-15T05:34:36.842Z,99.90
2022-09-15T05:37:05.914Z,99.90
2022-09-15T05:39:34.432Z,99.90
2022-09-15T05:42:04.482Z,99.90
2022-09-15T05:44:32.977Z,99.90
2022-09-15T05:47:01.765Z,99.90
2022-09-15T05:49:31.466Z,99.90
2022-09-15T05:52:00.220Z,99.90
2022-09-15T05:54:28.751Z,99.90
2022-09-15T05:56:57.318Z,99.90
2022-09-15T05:59:28.625Z,99.90
2022-09-15T06:01:57.297Z,99.90
2022-09-15T06:04:25.900Z,99.90
2022-09-15T06:06:54.410Z,99.90
2022-09-15T06:09:23.209Z,99.90
2022-09-15T06:11:52.195Z,99.90
2022-09-15T06:14:20.787Z,99.90
2022-09-15T06:16:50.739Z,99.90
2022-09-15T06:19:19.631Z,99.90
2022-09-15T06:21:49.230Z,99.90
2022-09-15T06:24:18.062Z,99.90
2022-09-15T06:26:46.670Z,99.90
2022-09-15T06:29:15.347Z,99.90
2022-09-15T06:31:44.101Z,99.90
2022-09-15T06:34:14.086Z,99.90
2022-09-15T06:36:42.860Z,99.90
2022-09-15T06:39:11.737Z,99.90
2022-09-15T06:42:01.332Z,99.90
2022-09-15T06:44:29.017Z,99.90
2022-09-15T06:46:57.573Z,99.90
2022-09-15T06:49:27.621Z,99.90
2022-09-15T06:51:56.518Z,99.90
2022-09-15T06:54:25.310Z,99.90
2022-09-15T06:56:53.924Z,99.90
2022-09-15T06:59:24.007Z,99.90
2022-09-15T07:01:54.513Z,99.90
2022-09-15T07:04:23.615Z,99.90
2022-09-15T07:06:53.694Z,99.90
2022-09-15T07:09:22.278Z,99.90
2022-09-15T07:11:50.772Z,99.90
2022-09-15T07:14:19.422Z,99.90
2022-09-15T07:16:48.093Z,99.90
2022-09-15T07:19:16.867Z,99.90
2022-09-15T07:21:45.544Z,99.90
2022-09-15T07:24:15.592Z,99.90
2022-09-15T07:26:44.146Z,99.90
2022-09-15T07:29:12.856Z,99.90
2022-09-15T07:31:41.536Z,99.90
2022-09-15T07:34:10.076Z,99.90
2022-09-15T07:36:38.856Z,99.90
2022-09-15T07:39:07.714Z,99.90
2022-09-15T07:41:37.606Z,99.90
2022-09-15T07:44:08.625Z,99.90
2022-09-15T07:46:37.157Z,99.90
2022-09-15T07:49:06.784Z,99.90
2022-09-15T07:51:35.578Z,99.90
2022-09-15T07:54:04.335Z,99.90
2022-09-15T07:56:33.354Z,99.90
2022-09-15T07:59:03.382Z,99.90
2022-09-15T08:01:32.024Z,99.90
2022-09-15T08:04:01.006Z,99.90
2022-09-15T08:06:31.048Z,99.90
2022-09-15T08:09:00.973Z,99.90
2022-09-15T08:11:30.825Z,99.90
2022-09-15T08:14:03.889Z,99.90
2022-09-15T08:16:32.630Z,99.90
2022-09-15T08:19:01.937Z,99.90
2022-09-15T08:21:31.740Z,99.90
2022-09-15T08:24:01.247Z,99.90
2022-09-15T08:26:31.149Z,99.90
2022-09-15T08:29:00.783Z,99.90
2022-09-15T08:31:30.912Z,99.90
2022-09-15T08:34:04.210Z,99.90
2022-09-15T08:36:32.864Z,99.90
2022-09-15T08:39:01.653Z,99.90
2022-09-15T08:41:33.529Z,99.90
2022-09-15T08:44:08.470Z,99.90
2022-09-15T08:46:45.460Z,99.90
2022-09-15T08:49:35.538Z,99.90
2022-09-15T08:52:15.353Z,99.90
2022-09-15T08:54:44.125Z,99.90
2022-09-15T08:57:18.252Z,99.90
2022-09-15T08:59:46.889Z,99.90
2022-09-15T09:02:45.365Z,99.90
2022-09-15T09:05:29.675Z,99.90
2022-09-15T09:08:19.167Z,99.90
2022-09-15T09:10:52.773Z,99.90
2022-09-15T09:13:37.443Z,99.90
2022-09-15T09:16:36.987Z,99.90
2022-09-15T09:19:28.949Z,99.90
2022-09-15T09:22:04.621Z,99.90
2022-09-15T09:24:37.820Z,99.90
2022-09-15T09:27:11.158Z,99.90
2022-09-15T09:29:44.700Z,99.90
2022-09-15T09:32:21.643Z,99.90
2022-09-15T09:35:02.040Z,99.90
2022-09-15T09:37:31.278Z,99.90
2022-09-15T09:39:59.964Z,99.90
2022-09-15T09:42:31.994Z,99.90
2022-09-15T09:45:00.857Z,99.90
2022-09-15T09:47:31.250Z,99.90
2022-09-15T09:50:02.285Z,99.90
2022-09-15T09:52:35.273Z,99.90
2022-09-15T09:55:06.086Z,99.90
2022-09-15T09:57:40.697Z,99.90
2022-09-15T10:00:32.137Z,99.90
2022-09-15T10:03:11.818Z,99.90
2022-09-15T10:05:42.125Z,99.90
2022-09-15T10:08:18.105Z,99.90
2022-09-15T10:10:56.056Z,99.90
2022-09-15T10:13:24.710Z,99.90
2022-09-15T10:15:55.915Z,99.90
2022-09-15T10:18:31.334Z,99.90
2022-09-15T10:21:03.793Z,99.90
2022-09-15T10:23:34.489Z,99.90
2022-09-15T10:26:22.458Z,99.90
2022-09-15T10:29:15.632Z,99.90
2022-09-15T10:31:45.255Z,99.90
2022-09-15T10:34:28.731Z,99.90
2022-09-15T10:37:08.382Z,99.90
2022-09-15T10:39:52.652Z,99.90
2022-09-15T10:42:33.227Z,99.90
2022-09-15T10:45:17.824Z,99.90
2022-09-15T10:48:02.964Z,99.90
2022-09-15T10:50:37.451Z,99.90
2022-09-15T10:53:18.022Z,99.90
2022-09-15T10:55:59.777Z,99.90
2022-09-15T10:58:45.829Z,99.90
2022-09-15T11:01:32.600Z,99.90
2022-09-15T11:04:23.378Z,99.90
2022-09-15T11:07:01.736Z,99.90
2022-09-15T11:09:39.797Z,99.90
2022-09-15T11:12:28.993Z,99.90
2022-09-15T11:15:16.692Z,99.90
2022-09-15T11:17:58.392Z,99.90
2022-09-15T11:20:43.109Z,99.90
2022-09-15T11:23:19.575Z,99.90
2022-09-15T11:25:54.701Z,99.90
2022-09-15T11:28:26.600Z,99.90
2022-09-15T11:31:01.210Z,99.90
2022-09-15T11:33:35.638Z,99.90
2022-09-15T11:36:08.757Z,99.90
2022-09-15T11:38:47.966Z,99.90
2022-09-15T11:41:27.207Z,99.90
2022-09-15T11:44:06.059Z,99.90
2022-09-15T11:46:54.582Z,99.90
2022-09-15T11:49:27.262Z,99.90
2022-09-15T11:52:05.659Z,99.90
2022-09-15T11:54:40.870Z,99.90
2022-09-15T11:57:18.074Z,99.90
2022-09-15T11:59:54.538Z,99.90
2022-09-15T12:02:30.271Z,99.90
2022-09-15T12:05:08.495Z,99.90
2022-09-15T12:07:44.598Z,99.90
2022-09-15T12:10:21.229Z,99.90
2022-09-15T12:12:54.028Z,99.90
2022-09-15T12:15:27.386Z,99.90
2022-09-15T12:18:27.257Z,99.90
2022-09-15T12:21:02.053Z,99.90
2022-09-15T12:23:34.838Z,99.90
2022-09-15T12:26:14.793Z,99.90
2022-09-15T12:28:55.453Z,99.90
2022-09-15T12:31:35.694Z,99.90
2022-09-15T12:34:07.217Z,99.90
2022-09-15T12:36:45.867Z,99.90
2022-09-15T12:39:38.203Z,99.90
2022-09-15T12:42:14.772Z,99.90
2022-09-15T12:44:48.847Z,99.90
2022-09-15T12:47:25.970Z,99.90
2022-09-15T12:49:58.572Z,99.90
2022-09-15T12:52:27.510Z,99.90
2022-09-15T12:55:01.133Z,99.90
2022-09-15T12:57:35.069Z,99.90
2022-09-15T13:00:38.013Z,99.90
2022-09-15T13:03:28.318Z,99.90
2022-09-15T13:06:19.766Z,99.90
2022-09-15T13:08:56.166Z,99.90
2022-09-15T13:11:37.475Z,99.90
2022-09-15T13:14:16.341Z,99.90
2022-09-15T13:16:53.960Z,99.90
2022-09-15T13:19:26.647Z,99.90
2022-09-15T13:22:02.929Z,99.90
2022-09-15T13:24:43.572Z,99.90
2022-09-15T13:27:13.545Z,99.90
2022-09-15T13:29:49.609Z,99.90
2022-09-15T13:32:40.771Z,99.90
2022-09-15T13:35:33.426Z,99.90
2022-09-15T13:38:32.058Z,99.40
2022-09-15T13:41:23.437Z,99.20
2022-09-15T13:44:23.335Z,98.10
2022-09-15T13:47:05.099Z,98.20
2022-09-15T13:49:51.352Z,98.40
2022-09-15T13:52:32.561Z,98.30
2022-09-15T13:55:27.999Z,97.70
2022-09-15T14:00:56.554Z,96.70
2022-09-15T14:03:33.865Z,96.30
2022-09-15T14:06:11.404Z,96.10
2022-09-15T14:08:41.687Z,96.90
2022-09-15T14:11:14.338Z,97.30
2022-09-15T14:13:47.232Z,97.70
2022-09-15T14:16:31.103Z,98.00
2022-09-15T14:19:03.934Z,98.10
2022-09-15T14:21:35.181Z,98.10
2022-09-15T14:24:07.025Z,98.00
2022-09-15T14:26:37.310Z,97.50
2022-09-15T14:29:07.568Z,96.80
2022-09-15T14:31:38.594Z,96.40
2022-09-15T14:34:09.754Z,96.20
2022-09-15T14:36:39.869Z,96.00
2022-09-15T14:39:19.576Z,95.20
2022-09-15T14:41:49.232Z,93.90
2022-09-15T14:47:17.988Z,94.20
2022-09-15T14:49:46.791Z,94.60
2022-09-15T14:52:30.899Z,94.90
2022-09-15T14:55:03.783Z,95.00
2022-09-15T14:57:36.366Z,95.40
2022-09-15T15:00:08.668Z,95.50
2022-09-15T15:02:51.233Z,95.40
2022-09-15T15:05:25.477Z,95.40
2022-09-15T15:07:56.723Z,95.30
2022-09-15T15:10:33.505Z,95.30
2022-09-15T15:13:08.351Z,95.20
2022-09-15T15:15:39.495Z,95.30
2022-09-15T15:18:31.818Z,95.50
2022-09-15T15:21:01.120Z,95.60
2022-09-15T15:23:32.233Z,95.80
2022-09-15T15:26:27.203Z,96.40
2022-09-15T15:28:55.876Z,98.10
2022-09-15T15:31:27.078Z,98.90
2022-09-15T15:33:59.673Z,99.70
2022-09-15T15:36:30.439Z,99.90
2022-09-15T15:39:03.122Z,99.90
2022-09-15T15:41:34.576Z,99.90
2022-09-15T15:44:08.309Z,99.90
2022-09-15T15:46:47.848Z,99.90
2022-09-15T15:49:16.697Z,99.90
2022-09-15T15:51:45.475Z,99.90
2022-09-15T15:54:15.631Z,99.90
2022-09-15T15:56:44.416Z,99.80
2022-09-15T15:59:14.157Z,99.60
2022-09-15T16:01:43.166Z,99.50
2022-09-15T16:04:12.863Z,99.50
2022-09-15T16:06:42.742Z,99.70
2022-09-15T16:09:12.563Z,99.90
2022-09-15T16:11:43.813Z,99.90
2022-09-15T16:14:14.396Z,99.90
2022-09-15T16:16:43.176Z,99.90
2022-09-15T16:19:15.054Z,99.90
2022-09-15T16:21:43.915Z,99.90
2022-09-15T16:24:14.956Z,99.90
2022-09-15T16:26:45.265Z,99.90
2022-09-15T16:29:13.943Z,99.90
2022-09-15T16:31:42.988Z,99.90
2022-09-15T16:34:17.673Z,99.90
2022-09-15T16:36:46.488Z,99.90
2022-09-15T16:39:15.206Z,99.90
2022-09-15T16:41:45.136Z,99.90
2022-09-15T16:44:19.770Z,99.90
2022-09-15T16:46:48.303Z,99.90
2022-09-15T16:49:17.478Z,99.90
2022-09-15T16:51:46.047Z,99.90
2022-09-15T16:54:17.798Z,99.90
2022-09-15T16:56:48.138Z,99.90
2022-09-15T16:59:16.694Z,99.90
2022-09-15T17:01:45.313Z,99.90
2022-09-15T17:04:16.934Z,99.90
2022-09-15T17:06:45.697Z,99.90
2022-09-15T17:09:14.275Z,99.90
2022-09-15T17:11:43.099Z,99.90
2022-09-15T17:14:16.998Z,99.90
2022-09-15T17:16:47.396Z,99.90
2022-09-15T17:19:16.143Z,99.90
2022-09-15T17:21:44.758Z,99.90
2022-09-15T17:24:13.378Z,99.90
2022-09-15T17:26:42.126Z,99.90
2022-09-15T17:29:10.710Z,99.90
2022-09-15T17:31:40.823Z,99.90
2022-09-15T17:34:14.035Z,99.90
2022-09-15T17:36:42.739Z,99.90
2022-09-15T17:39:11.249Z,99.90
2022-09-15T17:41:39.838Z,99.90
2022-09-15T17:44:11.635Z,99.90
2022-09-15T17:46:41.683Z,99.90
2022-09-15T17:49:10.494Z,99.90
2022-09-15T17:51:39.139Z,99.90
2022-09-15T17:54:09.606Z,99.90
2022-09-15T17:56:38.387Z,99.90
2022-09-15T17:59:06.933Z,99.90
2022-09-15T18:01:35.637Z,99.90
2022-09-15T18:04:06.231Z,99.90
2022-09-15T18:06:35.898Z,99.90
2022-09-15T18:09:04.531Z,99.90
2022-09-15T18:11:33.221Z,99.90
2022-09-15T18:14:01.727Z,99.90
2022-09-15T18:16:30.401Z,99.90
2022-09-15T18:18:59.085Z,99.90
2022-09-15T18:21:30.828Z,99.90
2022-09-15T18:23:59.724Z,99.90
2022-09-15T18:26:28.279Z,99.90
2022-09-15T18:28:57.151Z,99.90
2022-09-15T18:31:26.392Z,99.90
2022-09-15T18:33:55.010Z,99.90
2022-09-15T18:36:23.867Z,99.90
2022-09-15T18:38:53.953Z,99.90
2022-09-15T18:41:22.865Z,99.90
2022-09-15T18:43:51.401Z,99.90
2022-09-15T18:46:20.888Z,99.90
2022-09-15T18:48:49.679Z,99.90
2022-09-15T18:51:24.026Z,99.90
2022-09-15T18:53:59.951Z,99.90
2022-09-15T18:56:28.838Z,99.90
2022-09-15T18:58:57.393Z,99.90
2022-09-15T19:01:26.156Z,99.90
2022-09-15T19:03:54.877Z,99.90
2022-09-15T19:06:23.596Z,99.90
2022-09-15T19:08:52.363Z,99.90
2022-09-15T19:11:22.483Z,99.90
2022-09-15T19:13:53.461Z,99.90
2022-09-15T19:16:34.597Z,99.90
2022-09-15T19:19:09.596Z,99.90
2022-09-15T19:21:38.192Z,99.90
2022-09-15T19:24:06.979Z,99.90
2022-09-15T19:26:37.481Z,99.90
2022-09-15T19:29:06.605Z,99.90
2022-09-15T19:31:39.750Z,99.90
2022-09-15T19:34:11.003Z,99.90
2022-09-15T19:36:39.892Z,99.90
2022-09-15T19:39:08.425Z,99.90
2022-09-15T19:41:38.487Z,99.90
2022-09-15T19:44:10.582Z,99.90
2022-09-15T19:46:39.531Z,99.90
2022-09-15T19:49:08.548Z,99.90
2022-09-15T19:51:37.348Z,99.90
2022-09-15T19:54:06.906Z,99.90
2022-09-15T19:56:36.169Z,99.90
2022-09-15T19:59:07.188Z,99.90
2022-09-15T20:01:35.799Z,99.90
2022-09-15T20:04:04.546Z,99.90
2022-09-15T20:06:33.196Z,99.90
2022-09-15T20:09:01.901Z,99.90
2022-09-15T20:11:31.765Z,99.90
2022-09-15T20:14:02.139Z,99.90
2022-09-15T20:16:32.223Z,99.90
2022-09-15T20:19:03.049Z,99.90
2022-09-15T20:21:50.706Z,99.90
2022-09-15T20:24:21.232Z,99.90
2022-09-15T20:26:50.058Z,99.90
2022-09-15T20:29:18.642Z,99.90
2022-09-15T20:31:49.169Z,99.90
2022-09-15T20:34:18.684Z,99.90
2022-09-15T20:36:47.263Z,99.90
2022-09-15T20:39:16.613Z,99.90
2022-09-15T20:41:45.794Z,99.90
2022-09-15T20:44:15.397Z,99.90
2022-09-15T20:46:44.143Z,99.90
2022-09-15T20:49:14.307Z,99.90
2022-09-15T20:51:42.894Z,99.90
2022-09-15T20:54:12.009Z,99.90
2022-09-15T20:56:40.577Z,99.90
2022-09-15T20:59:10.671Z,99.90
2022-09-15T21:01:40.279Z,99.90
2022-09-15T21:04:10.033Z,99.90
2022-09-15T21:06:40.206Z,99.90
2022-09-15T21:09:09.298Z,99.90
2022-09-15T21:11:39.809Z,99.90
2022-09-15T21:14:08.355Z,99.90
2022-09-15T21:16:37.003Z,99.90
2022-09-15T21:19:07.860Z,99.90
2022-09-15T21:21:36.754Z,99.90
2022-09-15T21:24:09.623Z,99.90
2022-09-15T21:27:00.986Z,99.90
2022-09-15T21:29:30.084Z,99.90
2022-09-15T21:31:59.001Z,99.90
2022-09-15T21:34:28.071Z,99.90
2022-09-15T21:36:56.900Z,99.90
2022-09-15T21:39:26.814Z,99.90
2022-09-15T21:41:55.490Z,99.90
2022-09-15T21:44:24.051Z,99.90
2022-09-15T21:46:52.725Z,99.90
2022-09-15T21:49:21.340Z,99.90
2022-09-15T21:51:49.847Z,99.90
2022-09-15T21:54:18.396Z,99.90
2022-09-15T21:56:48.253Z,99.90
2022-09-15T21:59:18.448Z,99.90
2022-09-15T22:01:47.106Z,99.90
2022-09-15T22:04:15.963Z,99.90
2022-09-15T22:06:45.109Z,99.90
2022-09-15T22:09:16.099Z,99.90
2022-09-15T22:11:45.356Z,99.90
2022-09-15T22:14:15.444Z,99.90
2022-09-15T22:16:44.542Z,99.90
2022-09-15T22:19:13.619Z,99.90
2022-09-15T22:21:42.650Z,99.90
2022-09-15T22:24:12.735Z,99.90
2022-09-15T22:26:42.750Z,99.90
2022-09-15T22:29:11.430Z,99.90
2022-09-15T22:31:42.256Z,99.90
2022-09-15T22:34:10.927Z,99.90
2022-09-15T22:36:39.870Z,99.90
2022-09-15T22:39:08.385Z,99.90
2022-09-15T22:41:39.846Z,99.90
2022-09-15T22:44:17.266Z,99.90
2022-09-15T22:46:47.304Z,99.90
2022-09-15T22:49:15.807Z,99.90
2022-09-15T22:51:44.386Z,99.90
2022-09-15T22:54:12.916Z,99.90
2022-09-15T22:56:41.495Z,99.90
2022-09-15T22:59:10.215Z,99.90
2022-09-15T23:01:38.918Z,99.90
2022-09-15T23:04:08.936Z,99.90
2022-09-15T23:06:37.467Z,99.90
2022-09-15T23:09:08.867Z,99.90
2022-09-15T23:11:39.744Z,99.90
2022-09-15T23:14:09.163Z,99.90
2022-09-15T23:16:37.764Z,99.90
2022-09-15T23:19:06.893Z,99.90
2022-09-15T23:21:36.825Z,99.90
2022-09-15T23:24:05.854Z,99.90
2022-09-15T23:26:34.535Z,99.90
2022-09-15T23:29:03.080Z,99.90
2022-09-15T23:31:31.673Z,99.90
2022-09-15T23:34:00.266Z,99.90
2022-09-15T23:36:28.851Z,99.90
2022-09-15T23:38:58.784Z,99.90
2022-09-15T23:41:27.430Z,99.90
2022-09-15T23:43:56.979Z,99.90
2022-09-15T23:46:25.572Z,99.90
2022-09-15T23:48:54.211Z,99.90
2022-09-15T23:51:22.822Z,99.90
2022-09-15T23:53:51.405Z,99.90
2022-09-15T23:56:21.313Z,99.90
2022-09-15T23:58:49.898Z,99.90
